| time (UTC) | temp F | wind direction | speed knots | gust knots | rain 1hr in | rain 24hr in | rain mn in | humidity % | barometer mb |
| 20260506131702 | 73 | 0.0 | 0.0 | 0.00 | 0.00 | 0.00 | 19 | 1011.1 | |
| 20260506130702 | 73 | 0.0 | 0.0 | 0.00 | 0.00 | 0.00 | 19 | 1011.1 | |
| 20260506125701 | 73 | 0.0 | 0.0 | 0.00 | 0.00 | 0.00 | 19 | 1011.3 | |
| 20260506124702 | 72 | 0.0 | 0.0 | 0.00 | 0.00 | 0.00 | 19 | 1011.3 | |
| 20260506123701 | 72 | 0.0 | 0.0 | 0.00 | 0.00 | 0.00 | 19 | 1011.4 | |
| 20260506122705 | 72 | 0.0 | 0.0 | 0.00 | 0.00 | 0.00 | 19 | 1011.6 | |
| 20260506121701 | 72 | 0.0 | 0.0 | 0.00 | 0.00 | 0.00 | 19 | 1011.5 | |
| 20260506120702 | 72 | 0.0 | 0.0 | 0.00 | 0.00 | 0.00 | 19 | 1011.7 | |
| 20260506115701 | 72 | 0.0 | 0.0 | 0.00 | 0.00 | 0.00 | 20 | 1011.8 | |
| 20260506114702 | 72 | 0.0 | 0.0 | 0.00 | 0.00 | 0.00 | 19 | 1012.0 | |
| 20260506113701 | 72 | 0.0 | 0.0 | 0.00 | 0.00 | 0.00 | 19 | 1012.1 | |
| 20260506112701 | 72 | 0.0 | 0.0 | 0.00 | 0.00 | 0.00 | 19 | 1012.1 | |
| 20260506111701 | 72 | 0.0 | 0.0 | 0.00 | 0.00 | 0.00 | 19 | 1012.2 | |
| 20260506110702 | 73 | 0.0 | 0.0 | 0.00 | 0.00 | 0.00 | 19 | 1012.2 | |
| 20260506105702 | 72 | 0.0 | 0.0 | 0.00 | 0.00 | 0.00 | 19 | 1012.2 | |
| 20260506104701 | 72 | 0.0 | 0.0 | 0.00 | 0.00 | 0.00 | 19 | 1012.3 | |
| 20260506103702 | 72 | 0.0 | 0.0 | 0.00 | 0.00 | 0.00 | 20 | 1012.4 | |
| 20260506102702 | 71 | 0.0 | 0.0 | 0.00 | 0.00 | 0.00 | 21 | 1012.6 | |
| 20260506101701 | 71 | 0.0 | 0.0 | 0.00 | 0.00 | 0.00 | 23 | 1012.7 | |
| 20260506100701 | 71 | 0.0 | 0.0 | 0.00 | 0.00 | 0.00 | 24 | 1012.8 | |
| 20260506095701 | 71 | 0.0 | 0.0 | 0.00 | 0.00 | 0.00 | 25 | 1012.8 | |
| 20260506094702 | 71 | 0.0 | 0.0 | 0.00 | 0.00 | 0.00 | 25 | 1013.0 | |
| 20260506093702 | 71 | 0.0 | 0.0 | 0.00 | 0.00 | 0.00 | 24 | 1013.0 | |
| 20260506092702 | 71 | 0.0 | 0.0 | 0.00 | 0.00 | 0.00 | 24 | 1013.0 | |
| 20260506091702 | 71 | 0.0 | 0.0 | 0.00 | 0.00 | 0.00 | 24 | 1013.0 | |
| 20260506090702 | 72 | 0.0 | 0.0 | 0.00 | 0.00 | 0.00 | 24 | 1012.9 | |
| 20260506085701 | 73 | 0.0 | 0.0 | 0.00 | 0.00 | 0.00 | 24 | 1012.9 | |
| 20260506084702 | 74 | 0.0 | 0.0 | 0.00 | 0.00 | 0.00 | 23 | 1012.8 | |
| 20260506083702 | 75 | 0.0 | 0.0 | 0.00 | 0.00 | 0.00 | 24 | 1012.5 | |
| 20260506082701 | 77 | 0.0 | 0.0 | 0.00 | 0.00 | 0.00 | 22 | 1012.3 | |
| 20260506081702 | 75 | 0.0 | 0.0 | 0.00 | 0.00 | 0.00 | 23 | 1012.6 | |
| 20260506080701 | 75 | 0.0 | 0.0 | 0.00 | 0.00 | 0.00 | 23 | 1012.5 | |
| 20260506072701 | 73 | 0.0 | 0.0 | 0.00 | 0.00 | 0.00 | 24 | 1012.7 | |
| 20260506071703 | 74 | 0.0 | 0.0 | 0.00 | 0.00 | 0.00 | 25 | 1012.7 | |
| 20260506070702 | 72 | 0.0 | 0.0 | 0.00 | 0.00 | 0.00 | 25 | 1013.0 | |
| 20260506061703 | 71 | 0.0 | 0.0 | 0.00 | 0.00 | 0.00 | 24 | 1013.5 | |
| 20260506060702 | 70 | 0.0 | 0.0 | 0.00 | 0.00 | 0.00 | 24 | 1013.8 | |
| 20260506050701 | 68 | 0.0 | 0.0 | 0.00 | 0.00 | 0.00 | 27 | 1014.3 | |
| 20260506044701 | 66 | 0.0 | 0.0 | 0.00 | 0.00 | 0.00 | 34 | 1014.6 | |
| 20260506043701 | 62 | 0.0 | 0.0 | 0.00 | 0.00 | 0.00 | 40 | 1014.6 | |
| 20260506042701 | 62 | 0.0 | 0.0 | 0.00 | 0.00 | 0.00 | 35 | 1014.8 | |
| 20260506041701 | 61 | 0.0 | 0.0 | 0.00 | 0.00 | 0.00 | 35 | 1014.9 | |
| 20260506040701 | 59 | 0.0 | 0.0 | 0.00 | 0.00 | 0.00 | 39 | 1015.0 | |
| 20260506035701 | 59 | 0.0 | 0.0 | 0.00 | 0.00 | 0.00 | 37 | 1014.8 | |
| 20260506034702 | 57 | 0.0 | 0.0 | 0.00 | 0.00 | 0.00 | 38 | 1015.0 | |
| 20260506033701 | 57 | 0.0 | 0.0 | 0.00 | 0.00 | 0.00 | 39 | 1015.1 | |
| 20260506032700 | 57 | 0.0 | 0.0 | 0.00 | 0.00 | 0.00 | 37 | 1014.9 | |
| 20260506031701 | 58 | 0.0 | 0.0 | 0.00 | 0.00 | 0.00 | 36 | 1014.7 | |
| 20260506030701 | 58 | 0.0 | 0.0 | 0.00 | 0.00 | 0.00 | 36 | 1014.6 | |
| 20260506025701 | 58 | 0.0 | 0.0 | 0.00 | 0.00 | 0.00 | 35 | 1014.4 | |
| 20260506024702 | 58 | 0.0 | 0.0 | 0.00 | 0.00 | 0.00 | 34 | 1014.5 | |
| 20260506023701 | 58 | 0.0 | 0.0 | 0.00 | 0.00 | 0.00 | 35 | 1014.5 | |
| 20260506022701 | 58 | 0.0 | 0.0 | 0.00 | 0.00 | 0.00 | 35 | 1014.6 | |
| 20260506021701 | 58 | 0.0 | 0.0 | 0.00 | 0.00 | 0.00 | 34 | 1014.5 | |
| 20260506020701 | 58 | 0.0 | 0.0 | 0.00 | 0.00 | 0.00 | 34 | 1014.6 | |
| 20260506015701 | 59 | 0.0 | 0.0 | 0.00 | 0.00 | 0.00 | 34 | 1014.5 | |
| 20260506014702 | 59 | 0.0 | 0.0 | 0.00 | 0.00 | 0.00 | 34 | 1014.6 | |
| 20260506013701 | 59 | 0.0 | 0.0 | 0.00 | 0.00 | 0.00 | 33 | 1014.5 | |
| 20260506012701 | 59 | 0.0 | 0.0 | 0.00 | 0.00 | 0.00 | 32 | 1014.5 | |
| 20260506011704 | 60 | 0.0 | 0.0 | 0.00 | 0.00 | 0.00 | 32 | 1014.2 | |
| 20260506010701 | 60 | 0.0 | 0.0 | 0.00 | 0.00 | 0.00 | 32 | 1014.2 | |
| 20260506005701 | 60 | 0.0 | 0.0 | 0.00 | 0.00 | 0.00 | 32 | 1014.2 | |
| 20260506004700 | 60 | 0.0 | 0.0 | 0.00 | 0.00 | 0.00 | 33 | 1014.1 | |
| 20260506003702 | 61 | 0.0 | 0.0 | 0.00 | 0.00 | 0.00 | 32 | 1014.0 | |
| 20260506002702 | 61 | 0.0 | 0.0 | 0.00 | 0.00 | 0.00 | 32 | 1014.0 | |
| 20260506001700 | 61 | 0.0 | 0.0 | 0.00 | 0.00 | 0.00 | 30 | 1013.9 | |
| 20260506000702 | 61 | 0.0 | 0.0 | 0.00 | 0.00 | 0.00 | 30 | 1014.0 | |
| 20260505235701 | 61 | 0.0 | 0.0 | 0.00 | 0.00 | 0.00 | 31 | 1014.0 | |
| 20260505234702 | 62 | 0.0 | 0.0 | 0.00 | 0.00 | 0.00 | 31 | 1013.8 | |
| 20260505233700 | 62 | 0.0 | 0.0 | 0.00 | 0.00 | 0.00 | 32 | 1014.0 | |
| 20260505232701 | 62 | 0.0 | 0.0 | 0.00 | 0.00 | 0.00 | 34 | 1014.0 | |
| 20260505231701 | 62 | 0.0 | 0.0 | 0.00 | 0.00 | 0.00 | 33 | 1014.1 | |
| 20260505230701 | 62 | 0.0 | 0.0 | 0.00 | 0.00 | 0.00 | 33 | 1014.0 | |
| 20260505225701 | 63 | 0.0 | 0.0 | 0.00 | 0.00 | 0.00 | 33 | 1013.9 | |
| 20260505224702 | 63 | 0.0 | 0.0 | 0.00 | 0.00 | 0.00 | 34 | 1014.0 | |
| 20260505223701 | 63 | 0.0 | 0.0 | 0.00 | 0.00 | 0.00 | 34 | 1014.0 | |
| 20260505222701 | 63 | 0.0 | 0.0 | 0.00 | 0.00 | 0.00 | 34 | 1013.9 | |
| 20260505221702 | 63 | 0.0 | 0.0 | 0.00 | 0.00 | 0.00 | 34 | 1013.9 | |
| 20260505220701 | 63 | 0.0 | 0.0 | 0.00 | 0.00 | 0.00 | 34 | 1013.9 | |
| 20260505215701 | 63 | 0.0 | 0.0 | 0.00 | 0.00 | 0.00 | 34 | 1013.9 | |
| 20260505214701 | 63 | 0.0 | 0.0 | 0.00 | 0.00 | 0.00 | 34 | 1013.8 | |
| 20260505213701 | 63 | 0.0 | 0.0 | 0.00 | 0.00 | 0.00 | 34 | 1013.8 | |
| 20260505212701 | 64 | 0.0 | 0.0 | 0.00 | 0.00 | 0.00 | 34 | 1013.7 | |
| 20260505211701 | 64 | 0.0 | 0.0 | 0.00 | 0.00 | 0.00 | 34 | 1013.7 | |
| 20260505210701 | 64 | 0.0 | 0.0 | 0.00 | 0.00 | 0.00 | 34 | 1013.8 | |
| 20260505205702 | 64 | 0.0 | 0.0 | 0.00 | 0.00 | 0.00 | 34 | 1013.8 | |
| 20260505204701 | 64 | 0.0 | 0.0 | 0.00 | 0.00 | 0.00 | 34 | 1013.8 | |
| 20260505203703 | 63 | 0.0 | 0.0 | 0.00 | 0.00 | 0.00 | 34 | 1014.0 | |
| 20260505202702 | 64 | 0.0 | 0.0 | 0.00 | 0.00 | 0.00 | 34 | 1013.9 | |
| 20260505201701 | 64 | 0.0 | 0.0 | 0.00 | 0.00 | 0.00 | 34 | 1013.8 | |
| 20260505200701 | 64 | 0.0 | 0.0 | 0.00 | 0.00 | 0.00 | 34 | 1013.7 | |
| 20260505195703 | 63 | 0.0 | 0.0 | 0.00 | 0.00 | 0.00 | 34 | 1013.7 | |
| 20260505194701 | 63 | 0.0 | 0.0 | 0.00 | 0.00 | 0.00 | 34 | 1013.8 | |
| 20260505193701 | 63 | 0.0 | 0.0 | 0.00 | 0.00 | 0.00 | 34 | 1013.9 | |
| 20260505192704 | 62 | 0.0 | 0.0 | 0.00 | 0.00 | 0.00 | 34 | 1013.9 | |
| 20260505191701 | 62 | 0.0 | 0.0 | 0.00 | 0.00 | 0.00 | 35 | 1013.9 | |
| 20260505190701 | 62 | 0.0 | 0.0 | 0.00 | 0.00 | 0.00 | 33 | 1013.8 | |
| 20260505185701 | 62 | 0.0 | 0.0 | 0.00 | 0.00 | 0.00 | 33 | 1013.6 | |
| 20260505184701 | 62 | 0.0 | 0.0 | 0.00 | 0.00 | 0.00 | 32 | 1013.4 | |
| 20260505183701 | 62 | 0.0 | 0.0 | 0.00 | 0.00 | 0.00 | 31 | 1013.4 | |
| 20260505182700 | 63 | 0.0 | 0.0 | 0.00 | 0.00 | 0.00 | 29 | 1013.3 | |
| 20260505181701 | 63 | 0.0 | 0.0 | 0.00 | 0.00 | 0.00 | 29 | 1013.2 | |
| 20260505180701 | 63 | 0.0 | 0.0 | 0.00 | 0.00 | 0.00 | 28 | 1013.0 | |
| 20260505175701 | 63 | 0.0 | 0.0 | 0.00 | 0.00 | 0.00 | 31 | 1013.0 | |
| 20260505174700 | 63 | 0.0 | 0.0 | 0.00 | 0.00 | 0.00 | 31 | 1012.9 | |
| 20260505173708 | 63 | 0.0 | 0.0 | 0.00 | 0.00 | 0.00 | 32 | 1012.7 | |
| 20260505172701 | 63 | 0.0 | 0.0 | 0.00 | 0.00 | 0.00 | 33 | 1012.6 | |
| 20260505171701 | 64 | 0.0 | 0.0 | 0.00 | 0.00 | 0.00 | 34 | 1012.6 | |
| 20260505170701 | 64 | 0.0 | 0.0 | 0.00 | 0.00 | 0.00 | 35 | 1012.4 | |
| 20260505165700 | 65 | 0.0 | 0.0 | 0.00 | 0.00 | 0.00 | 35 | 1012.2 | |
| 20260505164701 | 65 | 0.0 | 0.0 | 0.00 | 0.00 | 0.00 | 36 | 1012.2 | |
| 20260505163701 | 66 | 0.0 | 0.0 | 0.00 | 0.00 | 0.00 | 35 | 1012.1 | |
| 20260505162700 | 66 | 0.0 | 0.0 | 0.00 | 0.00 | 0.00 | 35 | 1012.0 | |
| 20260505161701 | 67 | 0.0 | 0.0 | 0.00 | 0.00 | 0.00 | 30 | 1011.9 | |
| 20260505160701 | 67 | 0.0 | 0.0 | 0.00 | 0.00 | 0.00 | 22 | 1011.8 | |
| 20260505152701 | 69 | 0.0 | 0.0 | 0.00 | 0.00 | 0.00 | 20 | 1011.8 | |
| 20260505151701 | 69 | 0.0 | 0.0 | 0.00 | 0.00 | 0.00 | 20 | 1011.7 | |
| 20260505150701 | 69 | 0.0 | 0.0 | 0.00 | 0.00 | 0.00 | 20 | 1011.7 |